createdAt,value
2022-08-02T00:00:28.962Z,25.15
2022-08-02T00:01:01.160Z,25.15
2022-08-02T00:01:33.387Z,25.16
2022-08-02T00:02:08.512Z,25.17
2022-08-02T00:02:40.931Z,25.17
2022-08-02T00:03:13.176Z,25.17
2022-08-02T00:03:48.050Z,25.18
2022-08-02T00:04:20.367Z,25.19
2022-08-02T00:04:52.575Z,25.18
2022-08-02T00:05:24.810Z,25.18
2022-08-02T00:05:59.534Z,25.18
2022-08-02T00:06:34.321Z,25.19
2022-08-02T00:07:06.457Z,25.17
2022-08-02T00:07:41.644Z,25.16
2022-08-02T00:08:13.936Z,25.17
2022-08-02T00:08:46.448Z,25.17
2022-08-02T00:09:21.380Z,25.16
2022-08-02T00:09:53.569Z,25.17
2022-08-02T00:10:25.751Z,25.18
2022-08-02T00:11:00.468Z,25.18
2022-08-02T00:11:32.831Z,25.18
2022-08-02T00:12:05.782Z,25.19
2022-08-02T00:12:40.800Z,25.19
2022-08-02T00:13:13.002Z,25.18
2022-08-02T00:13:45.144Z,25.17
2022-08-02T00:14:20.906Z,25.17
2022-08-02T00:14:53.594Z,25.16
2022-08-02T00:15:25.858Z,25.15
2022-08-02T00:16:00.815Z,25.15
2022-08-02T00:16:37.944Z,25.13
2022-08-02T00:17:10.740Z,25.13
2022-08-02T00:17:46.454Z,25.12
2022-08-02T00:18:20.913Z,25.11
2022-08-02T00:18:53.278Z,25.11
2022-08-02T00:19:28.215Z,25.11
2022-08-02T00:20:00.419Z,25.11
2022-08-02T00:20:32.755Z,25.11
2022-08-02T00:21:07.574Z,25.13
2022-08-02T00:21:42.385Z,25.12
2022-08-02T00:22:17.281Z,25.12
2022-08-02T00:22:49.413Z,25.12
2022-08-02T00:23:21.902Z,25.13
2022-08-02T00:24:28.031Z,25.13
2022-08-02T00:24:48.909Z,25.09
2022-08-02T00:25:21.263Z,25.09
2022-08-02T00:25:54.953Z,25.10
2022-08-02T00:26:30.615Z,25.10
2022-08-02T00:27:09.182Z,25.09
2022-08-02T00:27:41.762Z,25.09
2022-08-02T00:28:18.610Z,25.08
2022-08-02T00:28:55.511Z,25.06
2022-08-02T00:29:27.782Z,25.08
2022-08-02T00:30:02.633Z,25.08
2022-08-02T00:30:34.852Z,25.07
2022-08-02T00:31:07.069Z,25.07
2022-08-02T00:31:42.287Z,25.07
2022-08-02T00:32:14.506Z,25.07
2022-08-02T00:32:46.697Z,25.08
2022-08-02T00:33:19.246Z,25.08
2022-08-02T00:34:28.974Z,25.02
2022-08-02T00:35:03.698Z,24.99
2022-08-02T00:35:35.886Z,25.01
2022-08-02T00:36:15.639Z,25.02
2022-08-02T00:36:50.464Z,25.01
2022-08-02T00:37:22.678Z,25.01
2022-08-02T00:37:57.570Z,25.03
2022-08-02T00:38:29.766Z,25.02
2022-08-02T00:39:02.005Z,25.02
2022-08-02T00:39:36.811Z,25.03
2022-08-02T00:40:10.563Z,25.02
2022-08-02T00:40:47.671Z,25.02
2022-08-02T00:41:24.953Z,25.01
2022-08-02T00:41:57.106Z,25.01
2022-08-02T00:42:29.285Z,25.02
2022-08-02T00:43:06.750Z,25.02
2022-08-02T00:43:39.034Z,25.02
2022-08-02T00:44:11.442Z,25.02
2022-08-02T00:44:47.539Z,25.02
2022-08-02T00:45:19.694Z,25.01
2022-08-02T00:46:02.838Z,25.00
2022-08-02T00:46:36.053Z,24.99
2022-08-02T00:47:10.866Z,25.00
2022-08-02T00:47:47.065Z,24.98
2022-08-02T00:48:19.273Z,24.97
2022-08-02T00:48:56.205Z,24.98
2022-08-02T00:49:29.322Z,24.96
2022-08-02T00:50:01.586Z,24.95
2022-08-02T00:50:37.338Z,24.95
2022-08-02T00:51:09.498Z,24.93
2022-08-02T00:51:44.584Z,24.93
2022-08-02T00:52:19.503Z,24.93
2022-08-02T00:52:51.688Z,24.88
2022-08-02T00:53:23.933Z,24.90
2022-08-02T00:53:58.756Z,24.89
2022-08-02T00:54:30.919Z,24.88
2022-08-02T00:55:03.192Z,24.89
2022-08-02T00:55:39.447Z,24.89
2022-08-02T00:56:11.970Z,24.86
2022-08-02T00:56:49.648Z,24.86
2022-08-02T00:57:23.241Z,24.84
2022-08-02T00:57:55.933Z,24.82
2022-08-02T00:58:30.934Z,24.83
2022-08-02T00:59:04.381Z,24.82
2022-08-02T00:59:36.739Z,24.82
2022-08-02T01:00:13.547Z,24.82
2022-08-02T01:00:45.715Z,24.81
2022-08-02T01:01:18.144Z,24.82
2022-08-02T01:01:57.159Z,24.81
2022-08-02T01:02:30.342Z,24.79
2022-08-02T01:03:02.531Z,24.81
2022-08-02T01:03:37.298Z,24.81
2022-08-02T01:04:11.477Z,24.82
2022-08-02T01:04:43.913Z,24.82
2022-08-02T01:05:19.307Z,24.83
2022-08-02T01:06:09.130Z,24.83
2022-08-02T01:06:45.588Z,24.81
2022-08-02T01:07:21.066Z,24.81
2022-08-02T01:07:53.221Z,24.82
2022-08-02T01:08:29.293Z,24.83
2022-08-02T01:09:05.034Z,24.82
2022-08-02T01:09:37.725Z,24.81
2022-08-02T01:10:13.606Z,24.82
2022-08-02T01:10:45.762Z,24.81
2022-08-02T01:11:17.963Z,24.81
2022-08-02T01:11:52.794Z,24.83
2022-08-02T01:12:25.275Z,24.82
2022-08-02T01:12:57.462Z,24.82
2022-08-02T01:13:32.354Z,24.81
2022-08-02T01:14:08.431Z,24.81
2022-08-02T01:14:44.843Z,24.78
2022-08-02T01:15:17.748Z,24.77
2022-08-02T01:15:58.460Z,24.76
2022-08-02T01:16:36.483Z,24.75
2022-08-02T01:17:12.418Z,24.73
2022-08-02T01:17:49.438Z,24.71
2022-08-02T01:18:30.732Z,24.70
2022-08-02T01:19:16.189Z,24.69
2022-08-02T01:19:59.132Z,24.68
2022-08-02T01:20:55.243Z,24.64
2022-08-02T01:21:52.872Z,24.61
2022-08-02T01:23:02.964Z,24.57
2022-08-02T01:23:51.969Z,24.55
2022-08-02T01:24:55.990Z,24.51
2022-08-02T01:25:47.823Z,24.50
2022-08-02T01:26:39.425Z,24.48
2022-08-02T01:27:32.479Z,24.49
2022-08-02T01:28:33.349Z,24.46
2022-08-02T01:29:12.730Z,24.48
2022-08-02T01:29:51.013Z,24.47
2022-08-02T01:30:26.243Z,24.48
2022-08-02T01:31:03.060Z,24.50
2022-08-02T01:31:41.305Z,24.50
2022-08-02T01:32:16.504Z,24.50
2022-08-02T01:32:53.950Z,24.52
2022-08-02T01:34:41.846Z,24.52
2022-08-02T01:35:22.966Z,24.52
2022-08-02T01:35:58.839Z,24.49
2022-08-02T01:36:36.614Z,24.48
2022-08-02T01:37:17.480Z,24.48
2022-08-02T01:37:55.214Z,24.46
2022-08-02T01:38:34.183Z,24.46
2022-08-02T01:39:26.409Z,24.46
2022-08-02T01:40:07.024Z,24.42
2022-08-02T01:40:44.848Z,24.41
2022-08-02T01:41:20.401Z,24.40
2022-08-02T01:41:58.070Z,24.39
2022-08-02T01:42:35.479Z,24.38
2022-08-02T01:43:09.434Z,24.35
2022-08-02T01:43:49.898Z,24.35
2022-08-02T01:44:27.117Z,24.34
2022-08-02T01:45:03.270Z,24.34
2022-08-02T01:45:38.083Z,24.34
2022-08-02T01:46:15.658Z,24.40
2022-08-02T01:46:49.793Z,24.35
2022-08-02T01:47:24.917Z,24.35
2022-08-02T01:48:00.463Z,24.35
2022-08-02T01:48:34.843Z,24.35
2022-08-02T01:49:16.450Z,24.36
2022-08-02T01:49:54.866Z,24.34
2022-08-02T01:50:32.667Z,24.33
2022-08-02T01:51:07.329Z,24.33
2022-08-02T01:51:56.972Z,24.32
2022-08-02T01:52:35.455Z,24.29
2022-08-02T01:53:09.601Z,24.28
2022-08-02T01:53:44.268Z,24.30
2022-08-02T01:54:19.863Z,24.32
2022-08-02T01:55:02.346Z,24.29
2022-08-02T01:55:57.894Z,24.29
2022-08-02T01:56:34.113Z,24.24
2022-08-02T01:57:09.556Z,24.25
2022-08-02T01:57:45.764Z,24.27
2022-08-02T01:58:23.108Z,24.26
2022-08-02T01:58:58.011Z,24.25
2022-08-02T01:59:32.224Z,24.25
2022-08-02T02:00:09.708Z,24.27
2022-08-02T02:00:43.248Z,24.25
2022-08-02T02:01:18.695Z,24.26
2022-08-02T02:01:57.033Z,24.25
2022-08-02T02:02:31.862Z,24.23
2022-08-02T02:03:06.212Z,24.23
2022-08-02T02:03:42.928Z,24.23
2022-08-02T02:04:16.448Z,24.23
2022-08-02T02:04:51.751Z,24.24
2022-08-02T02:05:28.931Z,24.23
2022-08-02T02:06:04.630Z,24.22
2022-08-02T02:06:38.159Z,24.24
2022-08-02T02:07:15.937Z,24.23
2022-08-02T02:07:52.556Z,24.24
2022-08-02T02:08:29.477Z,24.22
2022-08-02T02:09:06.436Z,24.22
2022-08-02T02:09:50.297Z,24.23
2022-08-02T02:10:30.475Z,24.20
2022-08-02T02:12:08.621Z,24.16
2022-08-02T02:12:11.717Z,24.19
2022-08-02T02:12:52.489Z,24.13
2022-08-02T02:13:33.560Z,24.15
2022-08-02T02:14:10.247Z,24.14
2022-08-02T02:14:51.646Z,24.16
2022-08-02T02:15:26.144Z,24.15
2022-08-02T02:16:01.870Z,24.15
2022-08-02T02:16:37.560Z,24.15
2022-08-02T02:18:10.445Z,24.15
2022-08-02T02:18:12.859Z,24.12
2022-08-02T02:18:48.049Z,24.11
2022-08-02T02:19:22.710Z,24.14
2022-08-02T02:20:00.846Z,24.14
2022-08-02T02:20:33.324Z,24.14
2022-08-02T02:21:05.578Z,24.13
2022-08-02T02:21:41.598Z,24.14
2022-08-02T02:22:13.922Z,24.16
2022-08-02T02:22:49.752Z,24.16
2022-08-02T02:23:26.019Z,24.15
2022-08-02T02:23:59.339Z,24.15
2022-08-02T02:24:33.481Z,24.16
2022-08-02T02:25:11.586Z,24.17
2022-08-02T02:25:46.918Z,24.16
2022-08-02T02:26:29.639Z,24.15
2022-08-02T02:27:09.475Z,24.14
2022-08-02T02:27:50.339Z,24.15
2022-08-02T02:28:30.197Z,24.13
2022-08-02T02:29:08.963Z,24.13
2022-08-02T02:29:47.497Z,24.13
2022-08-02T02:30:22.687Z,24.13
2022-08-02T02:31:00.815Z,24.13
2022-08-02T02:31:37.154Z,24.13
2022-08-02T02:32:12.975Z,24.12
2022-08-02T02:32:47.987Z,24.13
2022-08-02T02:33:26.320Z,24.12
2022-08-02T02:34:07.400Z,24.10
2022-08-02T02:34:44.006Z,24.13
2022-08-02T02:35:20.938Z,24.12
2022-08-02T02:35:54.026Z,24.12
2022-08-02T02:36:28.251Z,24.12
2022-08-02T02:37:06.194Z,24.13
2022-08-02T02:37:39.282Z,24.10
2022-08-02T02:38:14.395Z,24.11
2022-08-02T02:38:50.038Z,24.10
2022-08-02T02:39:24.027Z,24.09
2022-08-02T02:39:58.355Z,24.09
2022-08-02T02:40:34.427Z,24.09
2022-08-02T02:41:07.191Z,24.10
2022-08-02T02:41:41.296Z,24.10
2022-08-02T02:42:19.363Z,24.11
2022-08-02T02:42:52.300Z,24.09
2022-08-02T02:43:28.495Z,24.08
2022-08-02T02:44:06.575Z,24.06
2022-08-02T02:44:40.793Z,24.07
2022-08-02T02:45:18.618Z,24.08
2022-08-02T02:45:54.205Z,24.05
2022-08-02T02:46:30.258Z,24.06
2022-08-02T02:47:05.769Z,24.04
2022-08-02T02:47:40.669Z,24.04
2022-08-02T02:48:15.836Z,24.03
2022-08-02T02:48:52.426Z,24.04
2022-08-02T02:49:25.665Z,24.03
2022-08-02T02:49:59.304Z,24.05
2022-08-02T02:50:35.069Z,24.05
2022-08-02T02:51:13.806Z,24.04
2022-08-02T02:51:47.941Z,24.03
2022-08-02T02:52:23.372Z,24.03
2022-08-02T02:52:56.220Z,24.02
2022-08-02T02:53:30.178Z,24.03
2022-08-02T02:54:34.899Z,23.98
2022-08-02T02:55:09.010Z,23.97
2022-08-02T02:56:01.571Z,23.99
2022-08-02T02:56:36.074Z,23.96
2022-08-02T02:57:11.748Z,23.99
2022-08-02T02:57:45.060Z,24.00
2022-08-02T02:58:17.780Z,24.01
2022-08-02T02:58:54.751Z,24.02
2022-08-02T02:59:27.359Z,24.01
2022-08-02T03:00:02.935Z,24.02
2022-08-02T03:00:53.760Z,24.03
2022-08-02T03:01:55.118Z,23.99
2022-08-02T03:02:24.403Z,23.94
2022-08-02T03:02:57.435Z,23.96
2022-08-02T03:03:31.250Z,23.98
2022-08-02T03:04:06.578Z,23.97
2022-08-02T03:04:57.374Z,23.98
2022-08-02T03:05:30.227Z,23.94
2022-08-02T03:06:02.439Z,23.94
2022-08-02T03:06:50.500Z,23.91
2022-08-02T03:07:22.924Z,23.92
2022-08-02T03:07:55.164Z,23.93
2022-08-02T03:08:30.069Z,23.96
2022-08-02T03:09:02.328Z,23.95
2022-08-02T03:09:34.591Z,23.96
2022-08-02T03:10:11.070Z,23.96
2022-08-02T03:10:43.882Z,23.95
2022-08-02T03:11:16.560Z,23.96
2022-08-02T03:11:49.239Z,23.98
2022-08-02T03:12:30.803Z,23.98
2022-08-02T03:13:04.153Z,23.95
2022-08-02T03:13:38.053Z,23.96
2022-08-02T03:14:14.863Z,23.96
2022-08-02T03:14:49.233Z,23.94
2022-08-02T03:15:22.430Z,23.94
2022-08-02T03:16:00.454Z,23.95
2022-08-02T03:16:32.890Z,23.92
2022-08-02T03:17:05.142Z,23.93
2022-08-02T03:17:44.956Z,23.95
2022-08-02T03:18:30.916Z,23.89
2022-08-02T03:19:03.944Z,23.89
2022-08-02T03:19:38.979Z,23.90
2022-08-02T03:20:13.496Z,23.91
2022-08-02T03:20:45.869Z,23.92
2022-08-02T03:21:20.611Z,23.93
2022-08-02T03:21:57.522Z,23.92
2022-08-02T03:22:30.000Z,23.90
2022-08-02T03:23:04.783Z,23.92
2022-08-02T03:23:36.950Z,23.91
2022-08-02T03:24:09.637Z,23.91
2022-08-02T03:24:44.384Z,23.91
2022-08-02T03:25:17.839Z,23.91
2022-08-02T03:25:50.084Z,23.91
2022-08-02T03:26:24.911Z,23.92
2022-08-02T03:26:57.051Z,23.91
2022-08-02T03:27:29.322Z,23.92
2022-08-02T03:28:04.104Z,23.91
2022-08-02T03:28:36.280Z,23.91
2022-08-02T03:29:09.819Z,23.91
2022-08-02T03:29:45.534Z,23.90
2022-08-02T03:30:17.816Z,23.91
2022-08-02T03:30:50.201Z,23.90
2022-08-02T03:31:27.543Z,23.91
2022-08-02T03:32:05.958Z,23.89
2022-08-02T03:32:40.833Z,23.89
2022-08-02T03:33:15.779Z,23.88
2022-08-02T03:33:48.280Z,23.87
2022-08-02T03:34:24.194Z,23.87
2022-08-02T03:34:56.949Z,23.87
2022-08-02T03:35:29.287Z,23.88
2022-08-02T03:36:08.666Z,23.86
2022-08-02T03:36:44.384Z,23.85
2022-08-02T03:37:16.874Z,23.85
2022-08-02T03:37:49.230Z,23.84
2022-08-02T03:38:28.911Z,23.86
2022-08-02T03:39:02.806Z,23.83
2022-08-02T03:39:38.282Z,23.83
2022-08-02T03:40:25.399Z,23.78
2022-08-02T03:40:58.819Z,23.79
2022-08-02T03:41:34.943Z,23.81
2022-08-02T03:42:08.952Z,23.81
2022-08-02T03:42:48.159Z,23.73
2022-08-02T03:43:24.211Z,23.75
2022-08-02T03:44:02.194Z,23.76
2022-08-02T03:44:34.803Z,23.79
2022-08-02T03:45:11.866Z,23.80
2022-08-02T03:45:47.863Z,23.79
2022-08-02T03:46:27.850Z,23.78
2022-08-02T03:47:00.275Z,23.76
2022-08-02T03:47:33.665Z,23.77
2022-08-02T03:48:31.875Z,23.77
2022-08-02T03:49:03.347Z,23.73
2022-08-02T03:49:39.434Z,23.76
2022-08-02T03:50:13.019Z,23.78
2022-08-02T03:50:48.087Z,23.80
2022-08-02T03:51:23.626Z,23.81
2022-08-02T03:51:56.176Z,23.80
2022-08-02T03:52:29.438Z,23.83
2022-08-02T03:53:04.907Z,23.82
2022-08-02T03:53:38.209Z,23.81
2022-08-02T03:54:10.730Z,23.82
2022-08-02T03:54:46.108Z,23.83
2022-08-02T03:55:18.528Z,23.82
2022-08-02T03:55:50.978Z,23.83
2022-08-02T03:56:25.793Z,23.84
2022-08-02T03:56:58.122Z,23.84
2022-08-02T03:57:30.450Z,23.83
2022-08-02T03:58:02.703Z,23.84
2022-08-02T03:58:37.570Z,23.84
2022-08-02T03:59:11.147Z,23.83
2022-08-02T03:59:45.156Z,23.82
2022-08-02T04:00:23.254Z,23.81
2022-08-02T04:00:57.819Z,23.81
2022-08-02T04:01:32.677Z,23.80
2022-08-02T04:02:07.510Z,23.77
2022-08-02T04:02:39.937Z,23.76
2022-08-02T04:03:12.210Z,23.78
2022-08-02T04:03:54.605Z,23.75
2022-08-02T04:04:26.767Z,23.78
2022-08-02T04:04:59.002Z,23.78
2022-08-02T04:05:33.930Z,23.79
2022-08-02T04:06:06.631Z,23.75
2022-08-02T04:06:41.641Z,23.76
2022-08-02T04:07:14.038Z,23.75
2022-08-02T04:08:34.574Z,23.76
2022-08-02T04:08:41.444Z,23.73
2022-08-02T04:09:14.306Z,23.75
2022-08-02T04:09:46.434Z,23.76
2022-08-02T04:10:21.683Z,23.77
2022-08-02T04:11:08.907Z,23.77
2022-08-02T04:11:41.094Z,23.73
2022-08-02T04:12:13.471Z,23.74
2022-08-02T04:12:48.627Z,23.74
2022-08-02T04:13:21.878Z,23.75
2022-08-02T04:13:56.999Z,23.75
2022-08-02T04:14:36.247Z,23.76
2022-08-02T04:15:12.721Z,23.74
2022-08-02T04:15:45.831Z,23.73
2022-08-02T04:16:24.155Z,23.72
2022-08-02T04:17:02.335Z,23.69
2022-08-02T04:17:42.062Z,23.67
2022-08-02T04:18:17.575Z,23.64
2022-08-02T04:18:54.362Z,23.66
2022-08-02T04:19:31.675Z,23.67
2022-08-02T04:20:11.562Z,23.67
2022-08-02T04:20:46.067Z,23.67
2022-08-02T04:21:21.127Z,23.69
2022-08-02T04:21:57.731Z,23.71
2022-08-02T04:22:35.459Z,23.71
2022-08-02T04:23:11.182Z,23.72
2022-08-02T04:23:51.442Z,23.70
2022-08-02T04:24:28.007Z,23.69
2022-08-02T04:25:06.396Z,23.69
2022-08-02T04:25:42.585Z,23.67
2022-08-02T04:26:15.900Z,23.68
2022-08-02T04:26:52.429Z,23.70
2022-08-02T04:27:50.123Z,23.70
2022-08-02T04:28:18.670Z,23.67
2022-08-02T04:29:03.415Z,23.69
2022-08-02T04:29:36.859Z,23.70
2022-08-02T04:30:10.595Z,23.73
2022-08-02T04:30:45.884Z,23.74
2022-08-02T04:31:18.929Z,23.74
2022-08-02T04:31:54.635Z,23.75
2022-08-02T04:32:31.429Z,23.74
2022-08-02T04:33:03.947Z,23.74
2022-08-02T04:33:40.199Z,23.76
2022-08-02T04:34:15.108Z,23.76
2022-08-02T04:35:22.473Z,23.76
2022-08-02T04:35:43.668Z,23.75
2022-08-02T04:36:15.970Z,23.77
2022-08-02T04:37:06.542Z,23.77
2022-08-02T04:37:39.387Z,23.79
2022-08-02T04:38:31.729Z,23.77
2022-08-02T04:39:06.685Z,23.79
2022-08-02T04:39:40.562Z,23.81
2022-08-02T04:40:13.429Z,23.82
2022-08-02T04:40:55.646Z,23.82
2022-08-02T04:41:40.672Z,23.80
2022-08-02T04:42:21.087Z,23.78
2022-08-02T04:42:55.792Z,23.78
2022-08-02T04:43:29.051Z,23.80
2022-08-02T04:44:01.315Z,23.82
2022-08-02T04:44:36.713Z,23.83
2022-08-02T04:45:11.155Z,23.86
2022-08-02T04:45:51.780Z,23.85
2022-08-02T04:46:26.558Z,23.86
2022-08-02T04:47:06.640Z,23.87
2022-08-02T04:47:54.398Z,23.87
2022-08-02T04:48:36.650Z,23.83
2022-08-02T04:49:09.106Z,23.84
2022-08-02T04:49:41.494Z,23.86
2022-08-02T04:50:16.459Z,23.87
2022-08-02T04:50:48.682Z,23.87
2022-08-02T04:51:23.434Z,23.89
2022-08-02T04:52:11.001Z,23.84
2022-08-02T04:52:46.082Z,23.88
2022-08-02T04:53:18.500Z,23.89
2022-08-02T04:53:53.249Z,23.91
2022-08-02T04:54:37.885Z,23.89
2022-08-02T04:55:10.456Z,23.91
2022-08-02T04:55:45.292Z,23.91
2022-08-02T04:56:17.416Z,23.91
2022-08-02T04:56:49.666Z,23.92
2022-08-02T04:57:52.441Z,23.92
2022-08-02T04:58:43.287Z,23.84
2022-08-02T04:59:15.413Z,23.83
2022-08-02T04:59:54.397Z,23.86
2022-08-02T05:00:28.250Z,23.87
2022-08-02T05:01:00.510Z,23.87
2022-08-02T05:01:35.840Z,23.88
2022-08-02T05:02:08.324Z,23.89
2022-08-02T05:02:43.432Z,23.89
2022-08-02T05:03:18.244Z,23.90
2022-08-02T05:03:50.608Z,23.89
2022-08-02T05:04:25.311Z,23.90
2022-08-02T05:04:57.481Z,23.87
2022-08-02T05:05:29.892Z,23.86
2022-08-02T05:06:04.659Z,23.85
2022-08-02T05:06:51.280Z,23.81
2022-08-02T05:07:23.526Z,23.83
2022-08-02T05:07:56.061Z,23.84
2022-08-02T05:08:31.394Z,23.86
2022-08-02T05:09:03.734Z,23.87
2022-08-02T05:09:36.014Z,23.88
2022-08-02T05:10:11.414Z,23.87
2022-08-02T05:10:43.862Z,23.89
2022-08-02T05:11:18.641Z,23.89
2022-08-02T05:11:53.356Z,23.87
2022-08-02T05:12:27.492Z,23.87
2022-08-02T05:13:02.194Z,23.86
2022-08-02T05:13:34.390Z,23.86
2022-08-02T05:14:29.074Z,23.81
2022-08-02T05:15:01.258Z,23.84
2022-08-02T05:15:33.586Z,23.85
2022-08-02T05:16:08.504Z,23.86
2022-08-02T05:16:40.715Z,23.87
2022-08-02T05:17:12.841Z,23.87
2022-08-02T05:17:51.440Z,23.87
2022-08-02T05:18:23.603Z,23.86
2022-08-02T05:18:55.862Z,23.86
2022-08-02T05:19:32.405Z,23.84
2022-08-02T05:20:05.825Z,23.83
2022-08-02T05:20:40.619Z,23.83
2022-08-02T05:21:12.951Z,23.83
2022-08-02T05:21:48.043Z,23.83
2022-08-02T05:22:22.833Z,23.83
2022-08-02T05:22:56.403Z,23.81
2022-08-02T05:23:28.560Z,23.81
2022-08-02T05:24:03.441Z,23.80
2022-08-02T05:24:35.619Z,23.79
2022-08-02T05:25:09.309Z,23.79
2022-08-02T05:25:44.026Z,23.78
2022-08-02T05:26:16.174Z,23.77
2022-08-02T05:26:48.456Z,23.77
2022-08-02T05:27:21.764Z,23.79
2022-08-02T05:27:57.040Z,23.79
2022-08-02T05:28:29.251Z,23.79
2022-08-02T05:29:04.807Z,23.79
2022-08-02T05:29:39.549Z,23.79
2022-08-02T05:30:25.475Z,23.74
2022-08-02T05:30:57.709Z,23.77
2022-08-02T05:31:32.446Z,23.77
2022-08-02T05:32:05.510Z,23.78
2022-08-02T05:32:43.947Z,23.78
2022-08-02T05:33:21.398Z,23.77
2022-08-02T05:33:53.576Z,23.76
2022-08-02T05:34:25.730Z,23.78
2022-08-02T05:34:57.905Z,23.80
2022-08-02T05:35:33.432Z,23.80
2022-08-02T05:36:06.690Z,23.78
2022-08-02T05:36:42.248Z,23.75
2022-08-02T05:37:17.208Z,23.72
2022-08-02T05:37:51.274Z,23.72
2022-08-02T05:38:23.464Z,23.72
2022-08-02T05:39:05.316Z,23.71
2022-08-02T05:39:55.086Z,23.70
2022-08-02T05:40:31.299Z,23.65
2022-08-02T05:41:03.659Z,23.64
2022-08-02T05:41:36.228Z,23.67
2022-08-02T05:42:11.187Z,23.69
2022-08-02T05:42:45.582Z,23.68
2022-08-02T05:43:17.822Z,23.67
2022-08-02T05:43:55.853Z,23.67
2022-08-02T05:44:28.141Z,23.66
2022-08-02T05:45:00.432Z,23.65
2022-08-02T05:45:37.425Z,23.62
2022-08-02T05:46:09.622Z,23.60
2022-08-02T05:46:41.786Z,23.59
2022-08-02T05:47:16.588Z,23.57
2022-08-02T05:47:48.818Z,23.55
2022-08-02T05:48:31.424Z,23.57
2022-08-02T05:49:04.741Z,23.52
2022-08-02T05:49:37.007Z,23.50
2022-08-02T05:50:12.711Z,23.49
2022-08-02T05:50:49.354Z,23.47
2022-08-02T05:51:26.800Z,23.45
2022-08-02T05:52:12.397Z,23.43
2022-08-02T05:52:51.617Z,23.39
2022-08-02T05:53:37.007Z,23.40
2022-08-02T05:54:16.455Z,23.38
2022-08-02T05:54:54.820Z,23.36
2022-08-02T05:55:31.216Z,23.36
2022-08-02T05:56:13.607Z,23.37
2022-08-02T05:56:49.646Z,23.34
2022-08-02T05:57:34.096Z,23.32
2022-08-02T05:58:27.901Z,23.25
2022-08-02T05:59:07.477Z,23.24
2022-08-02T05:59:47.786Z,23.25
2022-08-02T06:00:22.981Z,23.15
2022-08-02T06:00:56.922Z,23.17
2022-08-02T06:01:38.263Z,23.20
2022-08-02T06:02:30.250Z,23.21
2022-08-02T06:03:20.341Z,23.18
2022-08-02T06:04:02.382Z,23.17
2022-08-02T06:04:47.764Z,23.18
2022-08-02T06:05:20.874Z,23.19
2022-08-02T06:06:02.794Z,23.24
2022-08-02T06:06:36.124Z,23.24
2022-08-02T06:07:11.584Z,23.29
2022-08-02T06:07:48.105Z,23.29
2022-08-02T06:08:21.695Z,23.31
2022-08-02T06:09:03.365Z,23.33
2022-08-02T06:09:36.317Z,23.31
2022-08-02T06:10:09.959Z,23.33
2022-08-02T06:10:47.504Z,23.33
2022-08-02T06:11:22.658Z,23.33
2022-08-02T06:12:01.857Z,23.34
2022-08-02T06:12:48.827Z,23.34
2022-08-02T06:13:21.030Z,23.33
2022-08-02T06:13:54.425Z,23.34
2022-08-02T06:14:30.067Z,23.37
2022-08-02T06:15:03.990Z,23.37
2022-08-02T06:15:40.645Z,23.40
2022-08-02T06:16:32.280Z,23.37
2022-08-02T06:17:05.855Z,23.35
2022-08-02T06:17:41.846Z,23.37
2022-08-02T06:18:28.247Z,23.34
2022-08-02T06:19:04.326Z,23.31
2022-08-02T06:19:50.943Z,23.32
2022-08-02T06:20:27.273Z,23.25
2022-08-02T06:22:31.366Z,23.23
2022-08-02T06:22:31.918Z,23.16
2022-08-02T06:23:13.756Z,23.06
2022-08-02T06:23:58.651Z,23.03
2022-08-02T06:24:33.799Z,22.96
2022-08-02T06:25:11.591Z,22.93
2022-08-02T06:26:03.990Z,22.85
2022-08-02T06:26:40.583Z,22.80
2022-08-02T06:27:14.670Z,22.76
2022-08-02T06:27:51.083Z,22.77
2022-08-02T06:28:27.223Z,22.76
2022-08-02T06:28:59.410Z,22.74
2022-08-02T06:29:37.041Z,22.77
2022-08-02T06:30:14.498Z,22.78
2022-08-02T06:30:47.005Z,22.81
2022-08-02T06:31:19.487Z,22.85
2022-08-02T06:31:55.485Z,22.88
2022-08-02T06:32:28.207Z,22.91
2022-08-02T06:33:00.953Z,22.95
2022-08-02T06:33:35.935Z,22.99
2022-08-02T06:34:10.800Z,23.04
2022-08-02T06:34:43.744Z,23.06
2022-08-02T06:35:18.475Z,23.09
2022-08-02T06:35:57.299Z,23.10
2022-08-02T06:36:40.382Z,23.11
2022-08-02T06:37:19.793Z,23.13
2022-08-02T06:37:58.899Z,23.13
2022-08-02T06:38:34.528Z,23.16
2022-08-02T06:39:16.376Z,23.18
2022-08-02T06:39:53.240Z,23.21
2022-08-02T06:40:30.053Z,23.25
2022-08-02T06:41:06.469Z,23.29
2022-08-02T06:41:44.738Z,23.31
2022-08-02T06:42:38.080Z,23.27
2022-08-02T06:43:13.273Z,23.24
2022-08-02T06:43:53.857Z,23.26
2022-08-02T06:45:21.144Z,23.25
2022-08-02T06:45:53.362Z,23.27
2022-08-02T06:47:09.396Z,23.30
2022-08-02T06:47:20.771Z,23.27
2022-08-02T06:47:54.102Z,23.26
2022-08-02T06:48:26.319Z,23.25
2022-08-02T06:49:01.253Z,23.24
2022-08-02T06:49:51.963Z,23.22
2022-08-02T06:50:29.811Z,23.19
2022-08-02T06:51:02.390Z,23.21
2022-08-02T06:51:37.370Z,23.25
2022-08-02T06:52:10.079Z,23.25
2022-08-02T06:52:42.519Z,23.27
2022-08-02T06:53:17.363Z,23.26
2022-08-02T06:53:50.296Z,23.22
2022-08-02T06:54:22.495Z,23.18
2022-08-02T06:54:55.685Z,23.13
2022-08-02T06:55:32.357Z,23.11
2022-08-02T06:56:16.829Z,23.03
2022-08-02T06:56:49.119Z,23.00
2022-08-02T06:57:23.871Z,22.98
2022-08-02T06:57:56.131Z,22.98
2022-08-02T06:58:28.375Z,22.97
2022-08-02T06:59:05.910Z,22.97
2022-08-02T06:59:38.414Z,22.95
2022-08-02T07:00:12.716Z,22.93
2022-08-02T07:00:47.543Z,22.92
2022-08-02T07:01:20.157Z,22.86
2022-08-02T07:01:52.492Z,22.82
2022-08-02T07:02:27.549Z,22.77
2022-08-02T07:02:59.899Z,22.72
2022-08-02T07:03:35.361Z,22.67
2022-08-02T07:04:08.529Z,22.63
2022-08-02T07:04:43.369Z,22.61
2022-08-02T07:05:19.316Z,22.60
2022-08-02T07:05:51.826Z,22.62
2022-08-02T07:06:24.101Z,22.64
2022-08-02T07:06:57.462Z,22.65
2022-08-02T07:07:32.307Z,22.62
2022-08-02T07:08:05.147Z,22.59
2022-08-02T07:08:41.221Z,22.57
2022-08-02T07:09:21.763Z,22.55
2022-08-02T07:09:57.281Z,22.54
2022-08-02T07:10:35.862Z,22.57
2022-08-02T07:11:09.141Z,22.59
2022-08-02T07:11:41.474Z,22.60
2022-08-02T07:12:16.263Z,22.60
2022-08-02T07:12:48.413Z,22.60
2022-08-02T07:13:23.174Z,22.61
2022-08-02T07:13:55.397Z,22.59
2022-08-02T07:14:27.646Z,22.61
2022-08-02T07:15:03.341Z,22.62
2022-08-02T07:15:35.644Z,22.61
2022-08-02T07:16:10.592Z,22.62
2022-08-02T07:16:42.825Z,22.58
2022-08-02T07:17:14.969Z,22.57
2022-08-02T07:17:49.695Z,22.58
2022-08-02T07:18:22.422Z,22.59
2022-08-02T07:18:54.809Z,22.60
2022-08-02T07:19:37.421Z,22.63
2022-08-02T07:20:13.680Z,22.62
2022-08-02T07:20:48.494Z,22.65
2022-08-02T07:21:56.677Z,22.66
2022-08-02T07:22:15.929Z,22.68
2022-08-02T07:22:48.337Z,22.72
2022-08-02T07:23:23.254Z,22.77
2022-08-02T07:23:55.434Z,22.79
2022-08-02T07:24:27.670Z,22.81
2022-08-02T07:25:00.679Z,22.82
2022-08-02T07:26:03.006Z,22.82
2022-08-02T07:26:27.844Z,22.80
2022-08-02T07:27:15.678Z,22.83
2022-08-02T07:27:50.587Z,22.83
2022-08-02T07:28:24.725Z,22.85
2022-08-02T07:28:58.643Z,22.88
2022-08-02T07:29:38.632Z,22.92
2022-08-02T07:30:17.692Z,22.93
2022-08-02T07:30:52.667Z,22.96
2022-08-02T07:31:25.462Z,22.98
2022-08-02T07:31:57.649Z,22.98
2022-08-02T07:32:34.084Z,23.01
2022-08-02T07:33:06.302Z,23.01
2022-08-02T07:33:40.855Z,23.03
2022-08-02T07:34:17.111Z,23.04
2022-08-02T07:34:50.509Z,23.05
2022-08-02T07:35:27.104Z,23.06
2022-08-02T07:36:05.629Z,23.06
2022-08-02T07:36:41.019Z,23.05
2022-08-02T07:37:35.408Z,23.05
2022-08-02T07:38:10.710Z,23.01
2022-08-02T07:38:42.826Z,23.03
2022-08-02T07:39:17.604Z,23.01
2022-08-02T07:39:53.536Z,23.00
2022-08-02T07:40:27.607Z,22.96
2022-08-02T07:40:59.823Z,22.95
2022-08-02T07:41:34.552Z,22.94
2022-08-02T07:42:06.960Z,22.94
2022-08-02T07:42:39.824Z,22.94
2022-08-02T07:43:14.608Z,22.94
2022-08-02T07:43:46.803Z,22.95
2022-08-02T07:44:19.306Z,22.97
2022-08-02T07:44:54.284Z,22.98
2022-08-02T07:45:27.522Z,23.01
2022-08-02T07:46:00.807Z,23.01
2022-08-02T07:46:36.111Z,23.04
2022-08-02T07:47:08.928Z,23.06
2022-08-02T07:47:43.729Z,23.10
2022-08-02T07:48:18.458Z,23.11
2022-08-02T07:48:53.511Z,23.13
2022-08-02T07:49:25.736Z,23.12
2022-08-02T07:50:00.627Z,23.14
2022-08-02T07:50:35.440Z,23.15
2022-08-02T07:51:12.985Z,23.17
2022-08-02T07:51:49.123Z,23.17